• Join FlightAware (Why Join?)
  • Login
  • US Flag GB Flag 
04:49 EDT


 

Airport Tracker/Info


-or-


 

Live Flight TrackerFlight Track Log ✈ MTN7303 ✈ 09-May-2013 ✈ KBWI - KEWR

Flight Track Log - Related Links

Times and Time Zones

All times are in EDT time to prevent confusion due to time zone crossing. See the MTN7303 flight status page for this flight to view local times or setup timezone preferences in your user account.

Time Position Orientation Groundspeed Altitude Reporting Facility
EDT Latitude Longitude Course Direction KTS MPH feet Rate Location/Type
23:26 39.2333 -76.7000 30° Northeast 97 112 2,000  Level Potomac TRACON
23:27 39.2500 -76.7000 360° North 113 130 2,800 780 Climbing Potomac TRACON
23:28 39.2667 -76.6667 57° Northeast 120 138 3,500 660 Climbing Potomac TRACON
23:29 39.2833 -76.6333 57° Northeast 126 145 4,200 720 Climbing Potomac TRACON
23:30 39.3167 -76.6000 38° Northeast 128 147 4,900 420 Climbing Potomac TRACON
23:31 39.3333 -76.5667 57° Northeast 141 162 5,000 60 Climbing Potomac TRACON
23:32 39.4682 -76.3906 30° Northeast  Level FlightAware Approximate
23:32 39.3667 -76.5167 49° Northeast 148 170 5,100  Level Potomac TRACON
23:33 39.4000 -76.4833 38° Northeast 149 171 5,000 -60 Descending Potomac TRACON
23:34 39.4167 -76.4333 67° East 149 171 5,000  Level Potomac TRACON
23:35 39.4500 -76.4000 38° Northeast 146 168 5,000  Level Potomac TRACON
23:36 39.4667 -76.3500 67° East 157 181 5,000  Level Potomac TRACON
23:37 39.5000 -76.3167 38° Northeast 163 188 5,000  Level Potomac TRACON
23:38 39.5333 -76.2667 49° Northeast 165 190 5,000 -60 Level Potomac TRACON
23:41 39.6000 -76.1500 53° Northeast 168 193 4,900 -60 Descending Philadelphia TRACON
23:42 39.6333 -76.1167 38° Northeast 169 194 4,900  Level Philadelphia TRACON
23:43 39.6667 -76.0667 49° Northeast 168 193 4,900  Level Philadelphia TRACON
23:44 39.7000 -76.0167 49° Northeast 168 193 4,900  Level Philadelphia TRACON
23:45 39.7333 -75.9667 49° Northeast 167 192 4,900  Level Philadelphia TRACON
23:46 39.7500 -75.9333 57° Northeast 168 193 4,900  Level Philadelphia TRACON
23:47 39.7833 -75.8833 49° Northeast 168 193 4,900  Level Philadelphia TRACON
23:48 39.8167 -75.8333 49° Northeast 167 192 4,900  Level Philadelphia TRACON
23:49 39.8500 -75.7833 49° Northeast 168 193 4,900  Level Philadelphia TRACON
23:50 39.8833 -75.7500 37° Northeast 166 191 4,900  Level Philadelphia TRACON
23:51 39.9000 -75.7000 67° East 166 191 4,900  Level Philadelphia TRACON
23:52 39.9333 -75.6500 49° Northeast 168 193 4,900  Level Philadelphia TRACON
23:53 39.9500 -75.6000 66° East 170 196 4,900  Level Philadelphia TRACON
23:54 39.9833 -75.5500 49° Northeast 167 192 4,900  Level Philadelphia TRACON
23:55 40.0000 -75.4833 72° East 168 193 4,900  Level Philadelphia TRACON
23:56 40.0167 -75.4333 66° East 168 193 4,900  Level Philadelphia TRACON
23:57 40.0500 -75.3833 49° Northeast 170 196 4,900  Level Philadelphia TRACON
23:58 40.0667 -75.3333 66° East 169 194 4,900  Level Philadelphia TRACON
23:59 40.1000 -75.2833 49° Northeast 169 194 4,900  Level Philadelphia TRACON
00:00 40.1167 -75.2333 66° East 167 192 4,900  Level Philadelphia TRACON
00:01 40.1333 -75.1833 66° East 167 192 4,900  Level Philadelphia TRACON
00:02 40.1667 -75.1333 49° Northeast 166 191 4,900  Level Philadelphia TRACON
00:03 40.1833 -75.0833 66° East 168 193 4,900  Level Philadelphia TRACON
00:04 40.2167 -75.0333 49° Northeast 170 196 4,900  Level Philadelphia TRACON
00:05 40.2333 -74.9667 72° East 172 198 4,900  Level Philadelphia TRACON
00:06 40.2500 -74.9167 66° East 171 197 4,900  Level Philadelphia TRACON
00:07 40.3000 -74.8500 45° Northeast 167 192 4,900  Level New York TRACON
00:09 40.3667 -74.7667 44° Northeast 168 193 4,900  Level New York TRACON
00:10 40.3833 -74.7167 66° East 169 194 4,900  Level New York TRACON
00:11 40.4167 -74.6667 49° Northeast 174 200 4,900  Level New York TRACON
00:12 40.4500 -74.6333 37° Northeast 169 194 4,900  Level New York TRACON
00:13 40.5000 -74.6167 14° North 172 198 4,900  Level New York TRACON
00:15 40.5833 -74.6333 351° North 159 183 4,900  Level New York TRACON
00:16 40.6333 -74.6333 360° North 163 188 4,900  Level New York TRACON
00:17 40.6667 -74.6333 360° North 164 189 4,900  Level New York TRACON
00:18 40.7167 -74.6167 14° North 163 188 4,900 -180 Level New York TRACON
00:19 40.7667 -74.6000 14° North 170 196 4,600 -420 Descending New York TRACON
00:20 40.8000 -74.5833 21° North 178 205 4,100 -300 Descending New York TRACON
00:21 40.8500 -74.5500 27° Northeast 170 196 4,000 -60 Descending New York TRACON
00:23 40.9167 -74.4667 43° Northeast 170 196 4,000  Level New York TRACON
00:24 40.9167 -74.4000 90° East 181 208 4,000 -180 Level New York TRACON
00:25 40.9333 -74.3333 72° East 177 204 3,700 -540 Descending New York TRACON
00:26 40.9500 -74.2667 72° East 188 216 3,000 -360 Descending New York TRACON
00:27 40.9500 -74.2000 90° East 175 201 3,000  Level New York TRACON
00:28 40.9500 -74.1500 90° East 173 199 3,000  Level New York TRACON
00:29 40.9333 -74.1000 114° Southeast 175 201 3,000 -60 Level New York TRACON
00:31 40.8333 -74.0833 173° South 173 199 2,900 -360 Descending New York TRACON
00:32 40.7833 -74.1000 194° South 168 193 1,900 -840 Descending New York TRACON
00:34 40.7167 -74.1500 210° Southwest 150 173 400 -840 Descending New York TRACON
00:36 40.6925 -74.1687 193° South  Level Estimated
00:43 40.6925 -74.1687 193° South  Level Estimated